PWSweather.com
Personal Weather Stations
Station Observations
KOHAVON11
Long Road Station, Avon, OH 44011

Long Road StationAvon, OH 44011

Lat: 41.437, Lon: -82.0477

Elevation: 686

Station Type: Davis Vantage Pro2

http://www.avon-weather.com

High Low Average
Temperature 54.7°F12.6°C 38.5°F3.6°C 45.4°F7.4°C
Dew Point 36.5°F2.5°C 24.4°F-4.2°C 30.1°F-1.1°C
Winds 16.0 mph 25.7 kmh Calm Calm 7.0 mph WSW11.3 kmh WSW
Wind Gusts 24.0 mph38.6 kmh -- 16.0 mph25.7 kmh
Humidity 80% 37% 58%
Pressure 29.98 in1015.2 mb 29.81 in1009.5 mb -
Precipitation 0.00 in0.0 mm - -
Hour Temp Dew Point Humidity Winds Wind Gusts Pressure Precip Precip Rate Daily Precip Total
12:00 AM 39.2°F4.0°C 31.5°F-0.3°C 74% 18.0 mph S29.0 kmh S 27.0 mph43.5 kmh 29.83 in1010.2 mb 0.00 in0.0 mm 0.00 in0.0 mm 0.00 in0.0 mm
12:05 AM 39.3°F4.1°C 31.6°F-0.2°C 74% 8.0 mph SSW12.9 kmh SSW 27.0 mph43.5 kmh 29.84 in1010.5 mb 0.00 in0.0 mm 0.00 in0.0 mm 0.00 in0.0 mm
12:10 AM 39.4°F4.1°C 31.7°F-0.2°C 74% 5.0 mph SSW8.0 kmh SSW 27.0 mph43.5 kmh 29.84 in1010.5 mb 0.00 in0.0 mm 0.00 in0.0 mm 0.00 in0.0 mm
12:15 AM 39.5°F4.2°C 31.5°F-0.3°C 73% 14.0 mph SSW22.5 kmh SSW 22.0 mph35.4 kmh 29.84 in1010.5 mb 0.00 in0.0 mm 0.00 in0.0 mm 0.00 in0.0 mm
12:20 AM 39.8°F4.3°C 31.8°F-0.1°C 73% 11.0 mph SW17.7 kmh SW 22.0 mph35.4 kmh 29.84 in1010.5 mb 0.00 in0.0 mm 0.00 in0.0 mm 0.00 in0.0 mm
12:25 AM 40.0°F4.4°C 31.6°F-0.2°C 72% 16.0 mph S25.7 kmh S 22.0 mph35.4 kmh 29.84 in1010.5 mb 0.00 in0.0 mm 0.00 in0.0 mm 0.00 in0.0 mm
12:30 AM 40.3°F4.6°C 31.9°F-0.1°C 72% 8.0 mph S12.9 kmh S 22.0 mph35.4 kmh 29.83 in1010.2 mb 0.00 in0.0 mm 0.00 in0.0 mm 0.00 in0.0 mm
12:35 AM 40.6°F4.8°C 32.5°F0.3°C 73% 7.0 mph SW11.3 kmh SW 19.0 mph30.6 kmh 29.83 in1010.2 mb 0.00 in0.0 mm 0.00 in0.0 mm 0.00 in0.0 mm
12:40 AM 40.7°F4.8°C 33.0°F0.6°C 74% 10.0 mph SW16.1 kmh SW 19.0 mph30.6 kmh 29.83 in1010.2 mb 0.00 in0.0 mm 0.00 in0.0 mm 0.00 in0.0 mm
12:45 AM 40.7°F4.8°C 33.3°F0.7°C 75% 7.0 mph SW11.3 kmh SW 19.0 mph30.6 kmh 29.82 in1009.8 mb 0.00 in0.0 mm 0.00 in0.0 mm 0.00 in0.0 mm
12:50 AM 40.8°F4.9°C 33.4°F0.8°C 75% 6.0 mph SW9.7 kmh SW 19.0 mph30.6 kmh 29.82 in1009.8 mb 0.00 in0.0 mm 0.00 in0.0 mm 0.00 in0.0 mm
12:55 AM 40.9°F4.9°C 34.2°F1.2°C 77% 6.0 mph SW9.7 kmh SW 18.0 mph29.0 kmh 29.82 in1009.8 mb 0.00 in0.0 mm 0.00 in0.0 mm 0.00 in0.0 mm
01:00 AM 41.1°F5.1°C 34.7°F1.5°C 78% 7.0 mph SSW11.3 kmh SSW 18.0 mph29.0 kmh 29.82 in1009.8 mb 0.00 in0.0 mm 0.00 in0.0 mm 0.00 in0.0 mm
01:05 AM 41.3°F5.2°C 35.2°F1.8°C 79% 8.0 mph WSW12.9 kmh WSW 18.0 mph29.0 kmh 29.82 in1009.8 mb 0.00 in0.0 mm 0.00 in0.0 mm 0.00 in0.0 mm
01:10 AM 41.4°F5.2°C 35.3°F1.8°C 79% 5.0 mph WSW8.0 kmh WSW 18.0 mph29.0 kmh 29.82 in1009.8 mb 0.00 in0.0 mm 0.00 in0.0 mm 0.00 in0.0 mm
01:15 AM 41.5°F5.3°C 35.7°F2.1°C 80% 6.0 mph SW9.7 kmh SW 15.0 mph24.1 kmh 29.82 in1009.8 mb 0.00 in0.0 mm 0.00 in0.0 mm 0.00 in0.0 mm
01:20 AM 41.6°F5.3°C 35.8°F2.1°C 80% 7.0 mph WSW11.3 kmh WSW 15.0 mph24.1 kmh 29.82 in1009.8 mb 0.00 in0.0 mm 0.00 in0.0 mm 0.00 in0.0 mm
01:25 AM 41.8°F5.4°C 36.0°F2.2°C 80% 8.0 mph SW12.9 kmh SW 18.0 mph29.0 kmh 29.81 in1009.5 mb 0.00 in0.0 mm 0.00 in0.0 mm 0.00 in0.0 mm
01:30 AM 42.1°F5.6°C 36.0°F2.2°C 79% 8.0 mph SW12.9 kmh SW 19.0 mph30.6 kmh 29.82 in1009.8 mb 0.00 in0.0 mm 0.00 in0.0 mm 0.00 in0.0 mm
01:35 AM 42.3°F5.7°C 36.2°F2.3°C 79% 9.0 mph SW14.5 kmh SW 19.0 mph30.6 kmh 29.81 in1009.5 mb 0.00 in0.0 mm 0.00 in0.0 mm 0.00 in0.0 mm
01:40 AM 42.6°F5.9°C 36.5°F2.5°C 79% 6.0 mph WSW9.7 kmh WSW 23.0 mph37.0 kmh 29.81 in1009.5 mb 0.00 in0.0 mm 0.00 in0.0 mm 0.00 in0.0 mm
01:45 AM 43.0°F6.1°C 36.5°F2.5°C 78% 12.0 mph WSW19.3 kmh WSW 23.0 mph37.0 kmh 29.81 in1009.5 mb 0.00 in0.0 mm 0.00 in0.0 mm 0.00 in0.0 mm
01:50 AM 43.1°F6.2°C 36.3°F2.4°C 77% 8.0 mph SW12.9 kmh SW 23.0 mph37.0 kmh 29.81 in1009.5 mb 0.00 in0.0 mm 0.00 in0.0 mm 0.00 in0.0 mm
01:55 AM 43.2°F6.2°C 36.1°F2.3°C 76% 6.0 mph WSW9.7 kmh WSW 23.0 mph37.0 kmh 29.81 in1009.5 mb 0.00 in0.0 mm 0.00 in0.0 mm 0.00 in0.0 mm
02:00 AM 43.4°F6.3°C 36.3°F2.4°C 76% 7.0 mph WSW11.3 kmh WSW 22.0 mph35.4 kmh 29.81 in1009.5 mb 0.00 in0.0 mm 0.00 in0.0 mm 0.00 in0.0 mm
02:05 AM 43.4°F6.3°C 35.9°F2.2°C 75% 10.0 mph SW16.1 kmh SW 22.0 mph35.4 kmh 29.81 in1009.5 mb 0.00 in0.0 mm 0.00 in0.0 mm 0.00 in0.0 mm
02:10 AM 43.4°F6.3°C 35.9°F2.2°C 75% 10.0 mph WSW16.1 kmh WSW 18.0 mph29.0 kmh 29.81 in1009.5 mb 0.00 in0.0 mm 0.00 in0.0 mm 0.00 in0.0 mm
02:15 AM 43.4°F6.3°C 35.9°F2.2°C 75% 6.0 mph SW9.7 kmh SW 18.0 mph29.0 kmh 29.81 in1009.5 mb 0.00 in0.0 mm 0.00 in0.0 mm 0.00 in0.0 mm
02:20 AM 43.4°F6.3°C 35.9°F2.2°C 75% 10.0 mph WSW16.1 kmh WSW 16.0 mph25.7 kmh 29.81 in1009.5 mb 0.00 in0.0 mm 0.00 in0.0 mm 0.00 in0.0 mm
02:25 AM 43.5°F6.4°C 35.7°F2.1°C 74% 8.0 mph WSW12.9 kmh WSW 22.0 mph35.4 kmh 29.81 in1009.5 mb 0.00 in0.0 mm 0.00 in0.0 mm 0.00 in0.0 mm
02:30 AM 43.5°F6.4°C 35.7°F2.1°C 74% 7.0 mph SW11.3 kmh SW 22.0 mph35.4 kmh 29.81 in1009.5 mb 0.00 in0.0 mm 0.00 in0.0 mm 0.00 in0.0 mm
02:35 AM 43.5°F6.4°C 35.7°F2.1°C 74% 6.0 mph SW9.7 kmh SW 22.0 mph35.4 kmh 29.81 in1009.5 mb 0.00 in0.0 mm 0.00 in0.0 mm 0.00 in0.0 mm
02:40 AM 43.5°F6.4°C 35.7°F2.1°C 74% 8.0 mph SW12.9 kmh SW 22.0 mph35.4 kmh 29.81 in1009.5 mb 0.00 in0.0 mm 0.00 in0.0 mm 0.00 in0.0 mm
02:45 AM 43.5°F6.4°C 35.7°F2.1°C 74% 10.0 mph WSW16.1 kmh WSW 16.0 mph25.7 kmh 29.82 in1009.8 mb 0.00 in0.0 mm 0.00 in0.0 mm 0.00 in0.0 mm
02:50 AM 43.6°F6.4°C 35.8°F2.1°C 74% 10.0 mph WSW16.1 kmh WSW 18.0 mph29.0 kmh 29.82 in1009.8 mb 0.00 in0.0 mm 0.00 in0.0 mm 0.00 in0.0 mm
02:55 AM 43.5°F6.4°C 35.3°F1.8°C 73% 12.0 mph WSW19.3 kmh WSW 18.0 mph29.0 kmh 29.82 in1009.8 mb 0.00 in0.0 mm 0.00 in0.0 mm 0.00 in0.0 mm
03:00 AM 43.4°F6.3°C 35.2°F1.8°C 73% 6.0 mph W9.7 kmh W 18.0 mph29.0 kmh 29.82 in1009.8 mb 0.00 in0.0 mm 0.00 in0.0 mm 0.00 in0.0 mm
03:05 AM 43.3°F6.3°C 34.8°F1.6°C 72% 10.0 mph W16.1 kmh W 21.0 mph33.8 kmh 29.82 in1009.8 mb 0.00 in0.0 mm 0.00 in0.0 mm 0.00 in0.0 mm
03:10 AM 43.2°F6.2°C 34.7°F1.5°C 72% 7.0 mph W11.3 kmh W 21.0 mph33.8 kmh 29.82 in1009.8 mb 0.00 in0.0 mm 0.00 in0.0 mm 0.00 in0.0 mm
03:15 AM 43.1°F6.2°C 34.6°F1.4°C 72% 4.0 mph W6.4 kmh W 21.0 mph33.8 kmh 29.82 in1009.8 mb 0.00 in0.0 mm 0.00 in0.0 mm 0.00 in0.0 mm
03:20 AM 43.0°F6.1°C 34.5°F1.4°C 72% 9.0 mph WSW14.5 kmh WSW 21.0 mph33.8 kmh 29.83 in1010.2 mb 0.00 in0.0 mm 0.00 in0.0 mm 0.00 in0.0 mm
03:25 AM 42.8°F6.0°C 34.3°F1.3°C 72% 6.0 mph W9.7 kmh W 19.0 mph30.6 kmh 29.83 in1010.2 mb 0.00 in0.0 mm 0.00 in0.0 mm 0.00 in0.0 mm
03:30 AM 42.6°F5.9°C 33.7°F0.9°C 71% 6.0 mph WNW9.7 kmh WNW 20.0 mph32.2 kmh 29.83 in1010.2 mb 0.00 in0.0 mm 0.00 in0.0 mm 0.00 in0.0 mm
03:35 AM 42.4°F5.8°C 33.2°F0.7°C 70% 7.0 mph WSW11.3 kmh WSW 20.0 mph32.2 kmh 29.83 in1010.2 mb 0.00 in0.0 mm 0.00 in0.0 mm 0.00 in0.0 mm
03:40 AM 42.3°F5.7°C 33.1°F0.6°C 70% 5.0 mph W8.0 kmh W 20.0 mph32.2 kmh 29.83 in1010.2 mb 0.00 in0.0 mm 0.00 in0.0 mm 0.00 in0.0 mm
03:45 AM 42.3°F5.7°C 33.1°F0.6°C 70% 9.0 mph WSW14.5 kmh WSW 20.0 mph32.2 kmh 29.83 in1010.2 mb 0.00 in0.0 mm 0.00 in0.0 mm 0.00 in0.0 mm
03:50 AM 42.2°F5.7°C 33.0°F0.6°C 70% 13.0 mph WNW20.9 kmh WNW 17.0 mph27.4 kmh 29.83 in1010.2 mb 0.00 in0.0 mm 0.00 in0.0 mm 0.00 in0.0 mm
03:55 AM 42.3°F5.7°C 33.1°F0.6°C 70% 4.0 mph W6.4 kmh W 17.0 mph27.4 kmh 29.83 in1010.2 mb 0.00 in0.0 mm 0.00 in0.0 mm 0.00 in0.0 mm
04:00 AM 42.2°F5.7°C 33.0°F0.6°C 70% 7.0 mph WSW11.3 kmh WSW 15.0 mph24.1 kmh 29.83 in1010.2 mb 0.00 in0.0 mm 0.00 in0.0 mm 0.00 in0.0 mm
04:05 AM 42.2°F5.7°C 33.0°F0.6°C 70% 8.0 mph W12.9 kmh W 15.0 mph24.1 kmh 29.83 in1010.2 mb 0.00 in0.0 mm 0.00 in0.0 mm 0.00 in0.0 mm
04:10 AM 42.1°F5.6°C 32.9°F0.5°C 70% 3.0 mph WSW4.8 kmh WSW 15.0 mph24.1 kmh 29.83 in1010.2 mb 0.00 in0.0 mm 0.00 in0.0 mm 0.00 in0.0 mm
04:15 AM 42.1°F5.6°C 32.9°F0.5°C 70% 13.0 mph WSW20.9 kmh WSW 15.0 mph24.1 kmh 29.83 in1010.2 mb 0.00 in0.0 mm 0.00 in0.0 mm 0.00 in0.0 mm
04:20 AM 42.1°F5.6°C 32.9°F0.5°C 70% 5.0 mph W8.0 kmh W 15.0 mph24.1 kmh 29.83 in1010.2 mb 0.00 in0.0 mm 0.00 in0.0 mm 0.00 in0.0 mm
04:25 AM 42.1°F5.6°C 32.9°F0.5°C 70% 6.0 mph W9.7 kmh W 15.0 mph24.1 kmh 29.83 in1010.2 mb 0.00 in0.0 mm 0.00 in0.0 mm 0.00 in0.0 mm
04:30 AM 42.2°F5.7°C 33.0°F0.6°C 70% 4.0 mph W6.4 kmh W 14.0 mph22.5 kmh 29.83 in1010.2 mb 0.00 in0.0 mm 0.00 in0.0 mm 0.00 in0.0 mm
04:35 AM 42.2°F5.7°C 33.0°F0.6°C 70% 6.0 mph WSW9.7 kmh WSW 15.0 mph24.1 kmh 29.83 in1010.2 mb 0.00 in0.0 mm 0.00 in0.0 mm 0.00 in0.0 mm
04:40 AM 42.1°F5.6°C 32.9°F0.5°C 70% 10.0 mph NW16.1 kmh NW 15.0 mph24.1 kmh 29.83 in1010.2 mb 0.00 in0.0 mm 0.00 in0.0 mm 0.00 in0.0 mm
04:45 AM 42.1°F5.6°C 32.5°F0.3°C 69% 6.0 mph WNW9.7 kmh WNW 18.0 mph29.0 kmh 29.83 in1010.2 mb 0.00 in0.0 mm 0.00 in0.0 mm 0.00 in0.0 mm
04:50 AM 42.1°F5.6°C 32.5°F0.3°C 69% 6.0 mph W9.7 kmh W 18.0 mph29.0 kmh 29.83 in1010.2 mb 0.00 in0.0 mm 0.00 in0.0 mm 0.00 in0.0 mm
04:55 AM 42.1°F5.6°C 32.5°F0.3°C 69% 4.0 mph WSW6.4 kmh WSW 18.0 mph29.0 kmh 29.84 in1010.5 mb 0.00 in0.0 mm 0.00 in0.0 mm 0.00 in0.0 mm
05:00 AM 42.0°F5.6°C 32.4°F0.2°C 69% 5.0 mph NW8.0 kmh NW 18.0 mph29.0 kmh 29.84 in1010.5 mb 0.00 in0.0 mm 0.00 in0.0 mm 0.00 in0.0 mm
05:05 AM 41.9°F5.5°C 32.3°F0.2°C 69% 4.0 mph W6.4 kmh W 16.0 mph25.7 kmh 29.84 in1010.5 mb 0.00 in0.0 mm 0.00 in0.0 mm 0.00 in0.0 mm
05:10 AM 41.8°F5.4°C 32.2°F0.1°C 69% 4.0 mph W6.4 kmh W 19.0 mph30.6 kmh 29.84 in1010.5 mb 0.00 in0.0 mm 0.00 in0.0 mm 0.00 in0.0 mm
05:15 AM 41.8°F5.4°C 32.2°F0.1°C 69% 6.0 mph WSW9.7 kmh WSW 19.0 mph30.6 kmh 29.84 in1010.5 mb 0.00 in0.0 mm 0.00 in0.0 mm 0.00 in0.0 mm
05:20 AM 41.7°F5.4°C 31.8°F-0.1°C 68% 7.0 mph W11.3 kmh W 19.0 mph30.6 kmh 29.84 in1010.5 mb 0.00 in0.0 mm 0.00 in0.0 mm 0.00 in0.0 mm
05:25 AM 41.6°F5.3°C 31.7°F-0.2°C 68% 7.0 mph W11.3 kmh W 19.0 mph30.6 kmh 29.85 in1010.8 mb 0.00 in0.0 mm 0.00 in0.0 mm 0.00 in0.0 mm
05:30 AM 41.5°F5.3°C 31.6°F-0.2°C 68% 10.0 mph WSW16.1 kmh WSW 19.0 mph30.6 kmh 29.84 in1010.5 mb 0.00 in0.0 mm 0.00 in0.0 mm 0.00 in0.0 mm
05:35 AM 41.3°F5.2°C 31.4°F-0.3°C 68% 4.0 mph W6.4 kmh W 19.0 mph30.6 kmh 29.84 in1010.5 mb 0.00 in0.0 mm 0.00 in0.0 mm 0.00 in0.0 mm
05:40 AM 41.2°F5.1°C 31.7°F-0.2°C 69% 10.0 mph WSW16.1 kmh WSW 18.0 mph29.0 kmh 29.84 in1010.5 mb 0.00 in0.0 mm 0.00 in0.0 mm 0.00 in0.0 mm
05:45 AM 41.0°F5.0°C 31.5°F-0.3°C 69% 6.0 mph W9.7 kmh W 18.0 mph29.0 kmh 29.85 in1010.8 mb 0.00 in0.0 mm 0.00 in0.0 mm 0.00 in0.0 mm
05:50 AM 40.9°F4.9°C 31.4°F-0.3°C 69% 5.0 mph WSW8.0 kmh WSW 17.0 mph27.4 kmh 29.85 in1010.8 mb 0.00 in0.0 mm 0.00 in0.0 mm 0.00 in0.0 mm
05:55 AM 40.9°F4.9°C 31.4°F-0.3°C 69% 6.0 mph WNW9.7 kmh WNW 19.0 mph30.6 kmh 29.85 in1010.8 mb 0.00 in0.0 mm 0.00 in0.0 mm 0.00 in0.0 mm
06:00 AM 40.8°F4.9°C 31.3°F-0.4°C 69% 5.0 mph W8.0 kmh W 19.0 mph30.6 kmh 29.85 in1010.8 mb 0.00 in0.0 mm 0.00 in0.0 mm 0.00 in0.0 mm
06:05 AM 40.8°F4.9°C 31.6°F-0.2°C 70% 6.0 mph W9.7 kmh W 19.0 mph30.6 kmh 29.86 in1011.2 mb 0.00 in0.0 mm 0.00 in0.0 mm 0.00 in0.0 mm
06:10 AM 40.7°F4.8°C 31.5°F-0.3°C 70% 4.0 mph W6.4 kmh W 19.0 mph30.6 kmh 29.86 in1011.2 mb 0.00 in0.0 mm 0.00 in0.0 mm 0.00 in0.0 mm
06:15 AM 40.7°F4.8°C 31.5°F-0.3°C 70% 4.0 mph WSW6.4 kmh WSW 16.0 mph25.7 kmh 29.86 in1011.2 mb 0.00 in0.0 mm 0.00 in0.0 mm 0.00 in0.0 mm
06:20 AM 40.6°F4.8°C 31.5°F-0.3°C 70% 6.0 mph W9.7 kmh W 16.0 mph25.7 kmh 29.86 in1011.2 mb 0.00 in0.0 mm 0.00 in0.0 mm 0.00 in0.0 mm
06:25 AM 40.5°F4.7°C 31.4°F-0.3°C 70% 4.0 mph W6.4 kmh W 10.0 mph16.1 kmh 29.86 in1011.2 mb 0.00 in0.0 mm 0.00 in0.0 mm 0.00 in0.0 mm
06:30 AM 40.3°F4.6°C 31.2°F-0.4°C 70% 5.0 mph W8.0 kmh W 11.0 mph17.7 kmh 29.87 in1011.5 mb 0.00 in0.0 mm 0.00 in0.0 mm 0.00 in0.0 mm
06:35 AM 40.2°F4.6°C 31.4°F-0.3°C 71% 3.0 mph WSW4.8 kmh WSW 11.0 mph17.7 kmh 29.87 in1011.5 mb 0.00 in0.0 mm 0.00 in0.0 mm 0.00 in0.0 mm
06:40 AM 40.1°F4.5°C 31.3°F-0.4°C 71% 5.0 mph WSW8.0 kmh WSW 11.0 mph17.7 kmh 29.87 in1011.5 mb 0.00 in0.0 mm 0.00 in0.0 mm 0.00 in0.0 mm
06:45 AM 40.0°F4.4°C 31.2°F-0.4°C 71% 6.0 mph WSW9.7 kmh WSW 14.0 mph22.5 kmh 29.87 in1011.5 mb 0.00 in0.0 mm 0.00 in0.0 mm 0.00 in0.0 mm
06:50 AM 39.9°F4.4°C 31.1°F-0.5°C 71% 2.0 mph W3.2 kmh W 14.0 mph22.5 kmh 29.87 in1011.5 mb 0.00 in0.0 mm 0.00 in0.0 mm 0.00 in0.0 mm
06:55 AM 39.8°F4.3°C 31.0°F-0.6°C 71% 4.0 mph W6.4 kmh W 14.0 mph22.5 kmh 29.87 in1011.5 mb 0.00 in0.0 mm 0.00 in0.0 mm 0.00 in0.0 mm
07:00 AM 39.9°F4.4°C 31.5°F-0.3°C 72% 6.0 mph WSW9.7 kmh WSW 14.0 mph22.5 kmh 29.88 in1011.9 mb 0.00 in0.0 mm 0.00 in0.0 mm 0.00 in0.0 mm
07:05 AM 39.8°F4.3°C 31.0°F-0.6°C 71% 3.0 mph W4.8 kmh W 9.0 mph14.5 kmh 29.88 in1011.9 mb 0.00 in0.0 mm 0.00 in0.0 mm 0.00 in0.0 mm
07:10 AM 39.7°F4.3°C 31.0°F-0.6°C 71% 8.0 mph W12.9 kmh W 9.0 mph14.5 kmh 29.88 in1011.9 mb 0.00 in0.0 mm 0.00 in0.0 mm 0.00 in0.0 mm
07:15 AM 39.6°F4.2°C 30.9°F-0.6°C 71% 4.0 mph SW6.4 kmh SW 9.0 mph14.5 kmh 29.88 in1011.9 mb 0.00 in0.0 mm 0.00 in0.0 mm 0.00 in0.0 mm
07:20 AM 39.5°F4.2°C 31.1°F-0.5°C 72% 3.0 mph WSW4.8 kmh WSW 9.0 mph14.5 kmh 29.89 in1012.2 mb 0.00 in0.0 mm 0.00 in0.0 mm 0.00 in0.0 mm
07:25 AM 39.4°F4.1°C 31.0°F-0.6°C 72% 8.0 mph WSW12.9 kmh WSW 9.0 mph14.5 kmh 29.89 in1012.2 mb 0.00 in0.0 mm 0.00 in0.0 mm 0.00 in0.0 mm
07:30 AM 39.3°F4.1°C 30.9°F-0.6°C 72% 3.0 mph WSW4.8 kmh WSW 11.0 mph17.7 kmh 29.89 in1012.2 mb 0.00 in0.0 mm 0.00 in0.0 mm 0.00 in0.0 mm
07:35 AM 39.2°F4.0°C 30.8°F-0.7°C 72% 6.0 mph WSW9.7 kmh WSW 11.0 mph17.7 kmh 29.89 in1012.2 mb 0.00 in0.0 mm 0.00 in0.0 mm 0.00 in0.0 mm
07:40 AM 39.2°F4.0°C 30.8°F-0.7°C 72% 3.0 mph WSW4.8 kmh WSW 11.0 mph17.7 kmh 29.89 in1012.2 mb 0.00 in0.0 mm 0.00 in0.0 mm 0.00 in0.0 mm
07:45 AM 39.2°F4.0°C 30.8°F-0.7°C 72% 8.0 mph WSW12.9 kmh WSW 11.0 mph17.7 kmh 29.90 in1012.5 mb 0.00 in0.0 mm 0.00 in0.0 mm 0.00 in0.0 mm
07:50 AM 39.2°F4.0°C 31.2°F-0.4°C 73% 5.0 mph WSW8.0 kmh WSW 11.0 mph17.7 kmh 29.90 in1012.5 mb 0.00 in0.0 mm 0.00 in0.0 mm 0.00 in0.0 mm
07:55 AM 39.3°F4.1°C 31.3°F-0.4°C 73% 3.0 mph WSW4.8 kmh WSW 11.0 mph17.7 kmh 29.90 in1012.5 mb 0.00 in0.0 mm 0.00 in0.0 mm 0.00 in0.0 mm
08:00 AM 39.4°F4.1°C 31.4°F-0.3°C 73% 5.0 mph W8.0 kmh W 14.0 mph22.5 kmh 29.91 in1012.9 mb 0.00 in0.0 mm 0.00 in0.0 mm 0.00 in0.0 mm
08:05 AM 39.5°F4.2°C 31.1°F-0.5°C 72% 5.0 mph WSW8.0 kmh WSW 14.0 mph22.5 kmh 29.91 in1012.9 mb 0.00 in0.0 mm 0.00 in0.0 mm 0.00 in0.0 mm
08:10 AM 39.6°F4.2°C 31.2°F-0.4°C 72% 5.0 mph WNW8.0 kmh WNW 14.0 mph22.5 kmh 29.91 in1012.9 mb 0.00 in0.0 mm 0.00 in0.0 mm 0.00 in0.0 mm
08:15 AM 39.6°F4.2°C 31.2°F-0.4°C 72% 6.0 mph WSW9.7 kmh WSW 14.0 mph22.5 kmh 29.91 in1012.9 mb 0.00 in0.0 mm 0.00 in0.0 mm 0.00 in0.0 mm
08:20 AM 39.6°F4.2°C 31.2°F-0.4°C 72% 6.0 mph WSW9.7 kmh WSW 14.0 mph22.5 kmh 29.91 in1012.9 mb 0.00 in0.0 mm 0.00 in0.0 mm 0.00 in0.0 mm
08:25 AM 39.7°F4.3°C 31.3°F-0.4°C 72% 5.0 mph W8.0 kmh W 14.0 mph22.5 kmh 29.92 in1013.2 mb 0.00 in0.0 mm 0.00 in0.0 mm 0.00 in0.0 mm
08:30 AM 39.8°F4.3°C 31.4°F-0.3°C 72% 8.0 mph W12.9 kmh W 10.0 mph16.1 kmh 29.92 in1013.2 mb 0.00 in0.0 mm 0.00 in0.0 mm 0.00 in0.0 mm
08:35 AM 39.9°F4.4°C 31.5°F-0.3°C 72% 9.0 mph SW14.5 kmh SW 14.0 mph22.5 kmh 29.92 in1013.2 mb 0.00 in0.0 mm 0.00 in0.0 mm 0.00 in0.0 mm
08:40 AM 40.0°F4.4°C 31.2°F-0.4°C 71% 6.0 mph W9.7 kmh W 14.0 mph22.5 kmh 29.92 in1013.2 mb 0.00 in0.0 mm 0.00 in0.0 mm 0.00 in0.0 mm
08:45 AM 40.1°F4.5°C 31.3°F-0.4°C 71% 6.0 mph W9.7 kmh W 14.0 mph22.5 kmh 29.92 in1013.2 mb 0.00 in0.0 mm 0.00 in0.0 mm 0.00 in0.0 mm
08:50 AM 40.2°F4.6°C 31.1°F-0.5°C 70% 6.0 mph W9.7 kmh W 14.0 mph22.5 kmh 29.93 in1013.5 mb 0.00 in0.0 mm 0.00 in0.0 mm 0.00 in0.0 mm
08:55 AM 40.2°F4.6°C 31.1°F-0.5°C 70% 5.0 mph W8.0 kmh W 15.0 mph24.1 kmh 29.93 in1013.5 mb 0.00 in0.0 mm 0.00 in0.0 mm 0.00 in0.0 mm
09:00 AM 40.3°F4.6°C 31.2°F-0.4°C 70% 12.0 mph WSW19.3 kmh WSW 15.0 mph24.1 kmh 29.93 in1013.5 mb 0.00 in0.0 mm 0.00 in0.0 mm 0.00 in0.0 mm
09:05 AM 40.4°F4.7°C 31.3°F-0.4°C 70% 4.0 mph WSW6.4 kmh WSW 15.0 mph24.1 kmh 29.93 in1013.5 mb 0.00 in0.0 mm 0.00 in0.0 mm 0.00 in0.0 mm
09:10 AM 40.4°F4.7°C 31.3°F-0.4°C 70% 11.0 mph WNW17.7 kmh WNW 15.0 mph24.1 kmh 29.93 in1013.5 mb 0.00 in0.0 mm 0.00 in0.0 mm 0.00 in0.0 mm
09:15 AM 40.5°F4.7°C 31.4°F-0.3°C 70% 6.0 mph W9.7 kmh W 14.0 mph22.5 kmh 29.93 in1013.5 mb 0.00 in0.0 mm 0.00 in0.0 mm 0.00 in0.0 mm
09:20 AM 40.5°F4.7°C 31.4°F-0.3°C 70% 5.0 mph W8.0 kmh W 16.0 mph25.7 kmh 29.94 in1013.9 mb 0.00 in0.0 mm 0.00 in0.0 mm 0.00 in0.0 mm
09:25 AM 40.5°F4.7°C 31.4°F-0.3°C 70% 8.0 mph W12.9 kmh W 17.0 mph27.4 kmh 29.94 in1013.9 mb 0.00 in0.0 mm 0.00 in0.0 mm 0.00 in0.0 mm
09:30 AM 40.5°F4.7°C 31.0°F-0.6°C 69% 12.0 mph WNW19.3 kmh WNW 17.0 mph27.4 kmh 29.94 in1013.9 mb 0.00 in0.0 mm 0.00 in0.0 mm 0.00 in0.0 mm
09:35 AM 40.7°F4.8°C 31.2°F-0.4°C 69% 9.0 mph WSW14.5 kmh WSW 17.0 mph27.4 kmh 29.94 in1013.9 mb 0.00 in0.0 mm 0.00 in0.0 mm 0.00 in0.0 mm
09:40 AM 41.2°F5.1°C 31.7°F-0.2°C 69% 6.0 mph WSW9.7 kmh WSW 17.0 mph27.4 kmh 29.94 in1013.9 mb 0.00 in0.0 mm 0.00 in0.0 mm 0.00 in0.0 mm
09:45 AM 41.3°F5.2°C 31.4°F-0.3°C 68% 4.0 mph WSW6.4 kmh WSW 17.0 mph27.4 kmh 29.95 in1014.2 mb 0.00 in0.0 mm 0.00 in0.0 mm 0.00 in0.0 mm
09:50 AM 41.6°F5.3°C 31.7°F-0.2°C 68% 11.0 mph WSW17.7 kmh WSW 18.0 mph29.0 kmh 29.95 in1014.2 mb 0.00 in0.0 mm 0.00 in0.0 mm 0.00 in0.0 mm
09:55 AM 41.9°F5.5°C 31.6°F-0.2°C 67% 14.0 mph WNW22.5 kmh WNW 18.0 mph29.0 kmh 29.95 in1014.2 mb 0.00 in0.0 mm 0.00 in0.0 mm 0.00 in0.0 mm
10:00 AM 42.2°F5.7°C 31.5°F-0.3°C 66% 6.0 mph WSW9.7 kmh WSW 21.0 mph33.8 kmh 29.95 in1014.2 mb 0.00 in0.0 mm 0.00 in0.0 mm 0.00 in0.0 mm
10:05 AM 42.1°F5.6°C 31.4°F-0.3°C 66% 10.0 mph WSW16.1 kmh WSW 21.0 mph33.8 kmh 29.95 in1014.2 mb 0.00 in0.0 mm 0.00 in0.0 mm 0.00 in0.0 mm
10:10 AM 42.1°F5.6°C 31.4°F-0.3°C 66% 8.0 mph WNW12.9 kmh WNW 21.0 mph33.8 kmh 29.96 in1014.6 mb 0.00 in0.0 mm 0.00 in0.0 mm 0.00 in0.0 mm
10:15 AM 42.3°F5.7°C 31.6°F-0.2°C 66% 13.0 mph W20.9 kmh W 21.0 mph33.8 kmh 29.96 in1014.6 mb 0.00 in0.0 mm 0.00 in0.0 mm 0.00 in0.0 mm
10:20 AM 42.3°F5.7°C 31.2°F-0.4°C 65% 11.0 mph W17.7 kmh W 17.0 mph27.4 kmh 29.96 in1014.6 mb 0.00 in0.0 mm 0.00 in0.0 mm 0.00 in0.0 mm
10:25 AM 42.4°F5.8°C 31.3°F-0.4°C 65% 7.0 mph WSW11.3 kmh WSW 17.0 mph27.4 kmh 29.96 in1014.6 mb 0.00 in0.0 mm 0.00 in0.0 mm 0.00 in0.0 mm
10:30 AM 42.5°F5.8°C 31.4°F-0.3°C 65% 8.0 mph WSW12.9 kmh WSW 19.0 mph30.6 kmh 29.96 in1014.6 mb 0.00 in0.0 mm 0.00 in0.0 mm 0.00 in0.0 mm
10:35 AM 42.8°F6.0°C 31.3°F-0.4°C 64% 7.0 mph WSW11.3 kmh WSW 19.0 mph30.6 kmh 29.97 in1014.9 mb 0.00 in0.0 mm 0.00 in0.0 mm 0.00 in0.0 mm
10:40 AM 43.0°F6.1°C 31.0°F-0.6°C 63% 12.0 mph WSW19.3 kmh WSW 19.0 mph30.6 kmh 29.97 in1014.9 mb 0.00 in0.0 mm 0.00 in0.0 mm 0.00 in0.0 mm
10:45 AM 43.2°F6.2°C 31.2°F-0.4°C 63% 7.0 mph WSW11.3 kmh WSW 19.0 mph30.6 kmh 29.97 in1014.9 mb 0.00 in0.0 mm 0.00 in0.0 mm 0.00 in0.0 mm
10:50 AM 43.2°F6.2°C 30.8°F-0.7°C 62% 10.0 mph W16.1 kmh W 18.0 mph29.0 kmh 29.97 in1014.9 mb 0.00 in0.0 mm 0.00 in0.0 mm 0.00 in0.0 mm
10:55 AM 43.1°F6.2°C 30.7°F-0.7°C 62% 5.0 mph W8.0 kmh W 18.0 mph29.0 kmh 29.97 in1014.9 mb 0.00 in0.0 mm 0.00 in0.0 mm 0.00 in0.0 mm
11:00 AM 43.5°F6.4°C 31.5°F-0.3°C 63% 11.0 mph WSW17.7 kmh WSW 18.0 mph29.0 kmh 29.98 in1015.2 mb 0.00 in0.0 mm 0.00 in0.0 mm 0.00 in0.0 mm
11:05 AM 43.6°F6.4°C 30.4°F-0.9°C 60% 9.0 mph W14.5 kmh W 18.0 mph29.0 kmh 29.98 in1015.2 mb 0.00 in0.0 mm 0.00 in0.0 mm 0.00 in0.0 mm
11:10 AM 44.1°F6.7°C 30.8°F-0.7°C 60% 10.0 mph W16.1 kmh W 18.0 mph29.0 kmh 29.98 in1015.2 mb 0.00 in0.0 mm 0.00 in0.0 mm 0.00 in0.0 mm
11:15 AM 44.7°F7.1°C 31.8°F-0.1°C 61% 9.0 mph WNW14.5 kmh WNW 18.0 mph29.0 kmh 29.98 in1015.2 mb 0.00 in0.0 mm 0.00 in0.0 mm 0.00 in0.0 mm
11:20 AM 44.9°F7.2°C 31.6°F-0.2°C 60% 9.0 mph W14.5 kmh W 15.0 mph24.1 kmh 29.98 in1015.2 mb 0.00 in0.0 mm 0.00 in0.0 mm 0.00 in0.0 mm
11:25 AM 45.0°F7.2°C 31.3°F-0.4°C 59% 12.0 mph SW19.3 kmh SW 16.0 mph25.7 kmh 29.98 in1015.2 mb 0.00 in0.0 mm 0.00 in0.0 mm 0.00 in0.0 mm
11:30 AM 44.9°F7.2°C 31.2°F-0.4°C 59% 13.0 mph WNW20.9 kmh WNW 19.0 mph30.6 kmh 29.98 in1015.2 mb 0.00 in0.0 mm 0.00 in0.0 mm 0.00 in0.0 mm
11:35 AM 45.1°F7.3°C 30.9°F-0.6°C 58% 5.0 mph WNW8.0 kmh WNW 19.0 mph30.6 kmh 29.98 in1015.2 mb 0.00 in0.0 mm 0.00 in0.0 mm 0.00 in0.0 mm
11:40 AM 45.5°F7.5°C 31.3°F-0.4°C 58% 7.0 mph W11.3 kmh W 19.0 mph30.6 kmh 29.98 in1015.2 mb 0.00 in0.0 mm 0.00 in0.0 mm 0.00 in0.0 mm
11:45 AM 45.7°F7.6°C 31.0°F-0.6°C 57% 16.0 mph WNW25.7 kmh WNW 19.0 mph30.6 kmh 29.98 in1015.2 mb 0.00 in0.0 mm 0.00 in0.0 mm 0.00 in0.0 mm
11:50 AM 46.0°F7.8°C 30.9°F-0.6°C 56% 5.0 mph W8.0 kmh W 19.0 mph30.6 kmh 29.98 in1015.2 mb 0.00 in0.0 mm 0.00 in0.0 mm 0.00 in0.0 mm
11:55 AM 46.3°F7.9°C 30.2°F-1.0°C 54% 9.0 mph W14.5 kmh W 19.0 mph30.6 kmh 29.98 in1015.2 mb 0.00 in0.0 mm 0.00 in0.0 mm 0.00 in0.0 mm
12:00 PM 46.5°F8.1°C 30.4°F-0.9°C 54% 8.0 mph WSW12.9 kmh WSW 18.0 mph29.0 kmh 29.98 in1015.2 mb 0.00 in0.0 mm 0.00 in0.0 mm 0.00 in0.0 mm
12:05 PM 46.8°F8.2°C 30.7°F-0.7°C 54% 5.0 mph W8.0 kmh W 18.0 mph29.0 kmh 29.97 in1014.9 mb 0.00 in0.0 mm 0.00 in0.0 mm 0.00 in0.0 mm
12:10 PM 47.0°F8.3°C 30.9°F-0.6°C 54% 4.0 mph W6.4 kmh W 17.0 mph27.4 kmh 29.98 in1015.2 mb 0.00 in0.0 mm 0.00 in0.0 mm 0.00 in0.0 mm
12:32 PM 47.7°F8.7°C 30.5°F-0.8°C 52% 7.0 mph WNW11.3 kmh WNW 17.0 mph27.4 kmh 29.97 in1014.9 mb 0.00 in0.0 mm 0.00 in0.0 mm 0.00 in0.0 mm
12:37 PM 47.9°F8.8°C 30.7°F-0.7°C 52% 10.0 mph WNW16.1 kmh WNW 21.0 mph33.8 kmh 29.97 in1014.9 mb 0.00 in0.0 mm 0.00 in0.0 mm 0.00 in0.0 mm
12:42 PM 48.2°F9.0°C 30.5°F-0.8°C 51% 7.0 mph W11.3 kmh W 21.0 mph33.8 kmh 29.97 in1014.9 mb 0.00 in0.0 mm 0.00 in0.0 mm 0.00 in0.0 mm
12:47 PM 48.6°F9.2°C 30.9°F-0.6°C 51% 11.0 mph WSW17.7 kmh WSW 21.0 mph33.8 kmh 29.97 in1014.9 mb 0.00 in0.0 mm 0.00 in0.0 mm 0.00 in0.0 mm
12:52 PM 48.8°F9.3°C 30.5°F-0.8°C 50% 9.0 mph WSW14.5 kmh WSW 21.0 mph33.8 kmh 29.96 in1014.6 mb 0.00 in0.0 mm 0.00 in0.0 mm 0.00 in0.0 mm
12:57 PM 49.0°F9.4°C 30.7°F-0.7°C 50% 8.0 mph W12.9 kmh W 19.0 mph30.6 kmh 29.96 in1014.6 mb 0.00 in0.0 mm 0.00 in0.0 mm 0.00 in0.0 mm
01:02 PM 49.3°F9.6°C 29.4°F-1.4°C 47% 7.0 mph WSW11.3 kmh WSW 19.0 mph30.6 kmh 29.96 in1014.6 mb 0.00 in0.0 mm 0.00 in0.0 mm 0.00 in0.0 mm
01:07 PM 49.2°F9.6°C 29.9°F-1.2°C 48% 11.0 mph W17.7 kmh W 18.0 mph29.0 kmh 29.96 in1014.6 mb 0.00 in0.0 mm 0.00 in0.0 mm 0.00 in0.0 mm
01:12 PM 49.9°F9.9°C 29.4°F-1.4°C 46% 4.0 mph W6.4 kmh W 18.0 mph29.0 kmh 29.96 in1014.6 mb 0.00 in0.0 mm 0.00 in0.0 mm 0.00 in0.0 mm
01:17 PM 50.3°F10.2°C 30.3°F-0.9°C 47% 8.0 mph WSW12.9 kmh WSW 18.0 mph29.0 kmh 29.96 in1014.6 mb 0.00 in0.0 mm 0.00 in0.0 mm 0.00 in0.0 mm
01:22 PM 50.4°F10.2°C 29.3°F-1.5°C 45% 6.0 mph WSW9.7 kmh WSW 18.0 mph29.0 kmh 29.96 in1014.6 mb 0.00 in0.0 mm 0.00 in0.0 mm 0.00 in0.0 mm
01:27 PM 50.6°F10.3°C 30.0°F-1.1°C 46% 12.0 mph WNW19.3 kmh WNW 20.0 mph32.2 kmh 29.95 in1014.2 mb 0.00 in0.0 mm 0.00 in0.0 mm 0.00 in0.0 mm
01:32 PM 50.6°F10.3°C 30.6°F-0.8°C 47% 5.0 mph WSW8.0 kmh WSW 20.0 mph32.2 kmh 29.95 in1014.2 mb 0.00 in0.0 mm 0.00 in0.0 mm 0.00 in0.0 mm
01:37 PM 51.1°F10.6°C 29.9°F-1.2°C 45% 6.0 mph W9.7 kmh W 20.0 mph32.2 kmh 29.95 in1014.2 mb 0.00 in0.0 mm 0.00 in0.0 mm 0.00 in0.0 mm
01:42 PM 51.2°F10.7°C 30.6°F-0.8°C 46% 9.0 mph W14.5 kmh W 20.0 mph32.2 kmh 29.95 in1014.2 mb 0.00 in0.0 mm 0.00 in0.0 mm 0.00 in0.0 mm
01:47 PM 51.2°F10.7°C 30.6°F-0.8°C 46% 9.0 mph WSW14.5 kmh WSW 21.0 mph33.8 kmh 29.95 in1014.2 mb 0.00 in0.0 mm 0.00 in0.0 mm 0.00 in0.0 mm
01:52 PM 51.7°F10.9°C 30.5°F-0.8°C 45% 5.0 mph WNW8.0 kmh WNW 21.0 mph33.8 kmh 29.95 in1014.2 mb 0.00 in0.0 mm 0.00 in0.0 mm 0.00 in0.0 mm
01:57 PM 51.9°F11.1°C 30.7°F-0.7°C 45% 8.0 mph WNW12.9 kmh WNW 21.0 mph33.8 kmh 29.95 in1014.2 mb 0.00 in0.0 mm 0.00 in0.0 mm 0.00 in0.0 mm
02:02 PM 51.8°F11.0°C 30.0°F-1.1°C 44% 13.0 mph W20.9 kmh W 22.0 mph35.4 kmh 29.95 in1014.2 mb 0.00 in0.0 mm 0.00 in0.0 mm 0.00 in0.0 mm
02:07 PM 52.1°F11.2°C 31.4°F-0.3°C 46% 12.0 mph WSW19.3 kmh WSW 22.0 mph35.4 kmh 29.94 in1013.9 mb 0.00 in0.0 mm 0.00 in0.0 mm 0.00 in0.0 mm
02:12 PM 52.2°F11.2°C 30.9°F-0.6°C 45% 8.0 mph W12.9 kmh W 22.0 mph35.4 kmh 29.94 in1013.9 mb 0.00 in0.0 mm 0.00 in0.0 mm 0.00 in0.0 mm
02:17 PM 52.4°F11.3°C 30.5°F-0.8°C 44% 8.0 mph W12.9 kmh W 22.0 mph35.4 kmh 29.94 in1013.9 mb 0.00 in0.0 mm 0.00 in0.0 mm 0.00 in0.0 mm
02:22 PM 52.1°F11.2°C 29.7°F-1.3°C 43% 9.0 mph WSW14.5 kmh WSW 20.0 mph32.2 kmh 29.94 in1013.9 mb 0.00 in0.0 mm 0.00 in0.0 mm 0.00 in0.0 mm
02:27 PM 52.6°F11.4°C 31.3°F-0.4°C 45% 10.0 mph WNW16.1 kmh WNW 21.0 mph33.8 kmh 29.94 in1013.9 mb 0.00 in0.0 mm 0.00 in0.0 mm 0.00 in0.0 mm
02:32 PM 52.8°F11.6°C 30.9°F-0.6°C 44% 9.0 mph W14.5 kmh W 21.0 mph33.8 kmh 29.94 in1013.9 mb 0.00 in0.0 mm 0.00 in0.0 mm 0.00 in0.0 mm
02:37 PM 52.8°F11.6°C 30.3°F-0.9°C 43% 15.0 mph WSW24.1 kmh WSW 21.0 mph33.8 kmh 29.93 in1013.5 mb 0.00 in0.0 mm 0.00 in0.0 mm 0.00 in0.0 mm
02:42 PM 52.9°F11.6°C 31.0°F-0.6°C 44% 6.0 mph W9.7 kmh W 21.0 mph33.8 kmh 29.93 in1013.5 mb 0.00 in0.0 mm 0.00 in0.0 mm 0.00 in0.0 mm
02:47 PM 53.1°F11.7°C 30.0°F-1.1°C 42% 7.0 mph WSW11.3 kmh WSW 19.0 mph30.6 kmh 29.93 in1013.5 mb 0.00 in0.0 mm 0.00 in0.0 mm 0.00 in0.0 mm
02:52 PM 52.9°F11.6°C 28.5°F-1.9°C 40% 11.0 mph W17.7 kmh W 24.0 mph38.6 kmh 29.93 in1013.5 mb 0.00 in0.0 mm 0.00 in0.0 mm 0.00 in0.0 mm
02:57 PM 53.0°F11.7°C 29.9°F-1.2°C 42% 16.0 mph W25.7 kmh W 24.0 mph38.6 kmh 29.93 in1013.5 mb 0.00 in0.0 mm 0.00 in0.0 mm 0.00 in0.0 mm
03:02 PM 53.1°F11.7°C 29.3°F-1.5°C 41% 8.0 mph W12.9 kmh W 24.0 mph38.6 kmh 29.93 in1013.5 mb 0.00 in0.0 mm 0.00 in0.0 mm 0.00 in0.0 mm
03:07 PM 53.1°F11.7°C 30.0°F-1.1°C 42% 12.0 mph WSW19.3 kmh WSW 24.0 mph38.6 kmh 29.93 in1013.5 mb 0.00 in0.0 mm 0.00 in0.0 mm 0.00 in0.0 mm
03:12 PM 53.1°F11.7°C 29.3°F-1.5°C 41% 11.0 mph W17.7 kmh W 22.0 mph35.4 kmh 29.93 in1013.5 mb 0.00 in0.0 mm 0.00 in0.0 mm 0.00 in0.0 mm
03:17 PM 53.1°F11.7°C 28.7°F-1.8°C 40% 11.0 mph W17.7 kmh W 22.0 mph35.4 kmh 29.93 in1013.5 mb 0.00 in0.0 mm 0.00 in0.0 mm 0.00 in0.0 mm
03:22 PM 53.1°F11.7°C 28.7°F-1.8°C 40% 7.0 mph W11.3 kmh W 22.0 mph35.4 kmh 29.93 in1013.5 mb 0.00 in0.0 mm 0.00 in0.0 mm 0.00 in0.0 mm
03:27 PM 53.2°F11.8°C 28.8°F-1.8°C 40% 9.0 mph WSW14.5 kmh WSW 22.0 mph35.4 kmh 29.92 in1013.2 mb 0.00 in0.0 mm 0.00 in0.0 mm 0.00 in0.0 mm
03:32 PM 53.4°F11.9°C 29.6°F-1.3°C 41% 6.0 mph WSW9.7 kmh WSW 19.0 mph30.6 kmh 29.92 in1013.2 mb 0.00 in0.0 mm 0.00 in0.0 mm 0.00 in0.0 mm
03:37 PM 53.6°F12.0°C 29.2°F-1.6°C 40% 12.0 mph W19.3 kmh W 19.0 mph30.6 kmh 29.92 in1013.2 mb 0.00 in0.0 mm 0.00 in0.0 mm 0.00 in0.0 mm
03:42 PM 53.7°F12.1°C 29.2°F-1.6°C 40% 15.0 mph WSW24.1 kmh WSW 21.0 mph33.8 kmh 29.92 in1013.2 mb 0.00 in0.0 mm 0.00 in0.0 mm 0.00 in0.0 mm
03:47 PM 53.6°F12.0°C 28.5°F-1.9°C 39% 13.0 mph WNW20.9 kmh WNW 21.0 mph33.8 kmh 29.92 in1013.2 mb 0.00 in0.0 mm 0.00 in0.0 mm 0.00 in0.0 mm
03:52 PM 54.0°F12.2°C 29.5°F-1.4°C 40% 5.0 mph WSW8.0 kmh WSW 21.0 mph33.8 kmh 29.92 in1013.2 mb 0.00 in0.0 mm 0.00 in0.0 mm 0.00 in0.0 mm
03:57 PM 54.5°F12.5°C 30.0°F-1.1°C 40% 9.0 mph W14.5 kmh W 21.0 mph33.8 kmh 29.91 in1012.9 mb 0.00 in0.0 mm 0.00 in0.0 mm 0.00 in0.0 mm
04:02 PM 54.7°F12.6°C 30.8°F-0.7°C 41% 7.0 mph WSW11.3 kmh WSW 17.0 mph27.4 kmh 29.91 in1012.9 mb 0.00 in0.0 mm 0.00 in0.0 mm 0.00 in0.0 mm
04:07 PM 54.2°F12.3°C 28.4°F-2.0°C 38% 15.0 mph W24.1 kmh W 17.0 mph27.4 kmh 29.91 in1012.9 mb 0.00 in0.0 mm 0.00 in0.0 mm 0.00 in0.0 mm
04:12 PM 53.8°F12.1°C 29.3°F-1.5°C 40% 12.0 mph WNW19.3 kmh WNW 22.0 mph35.4 kmh 29.92 in1013.2 mb 0.00 in0.0 mm 0.00 in0.0 mm 0.00 in0.0 mm
04:17 PM 53.8°F12.1°C 29.3°F-1.5°C 40% 10.0 mph W16.1 kmh W 22.0 mph35.4 kmh 29.91 in1012.9 mb 0.00 in0.0 mm 0.00 in0.0 mm 0.00 in0.0 mm
04:22 PM 54.0°F12.2°C 29.5°F-1.4°C 40% 5.0 mph W8.0 kmh W 22.0 mph35.4 kmh 29.91 in1012.9 mb 0.00 in0.0 mm 0.00 in0.0 mm 0.00 in0.0 mm
04:27 PM 53.7°F12.1°C 28.6°F-1.9°C 39% 9.0 mph WSW14.5 kmh WSW 22.0 mph35.4 kmh 29.91 in1012.9 mb 0.00 in0.0 mm 0.00 in0.0 mm 0.00 in0.0 mm
04:32 PM 53.7°F12.1°C 29.2°F-1.6°C 40% 10.0 mph WSW16.1 kmh WSW 19.0 mph30.6 kmh 29.91 in1012.9 mb 0.00 in0.0 mm 0.00 in0.0 mm 0.00 in0.0 mm
04:37 PM 54.1°F12.3°C 30.2°F-1.0°C 41% 8.0 mph WSW12.9 kmh WSW 19.0 mph30.6 kmh 29.91 in1012.9 mb 0.00 in0.0 mm 0.00 in0.0 mm 0.00 in0.0 mm
04:42 PM 54.2°F12.3°C 29.0°F-1.7°C 39% 8.0 mph W12.9 kmh W 22.0 mph35.4 kmh 29.91 in1012.9 mb 0.00 in0.0 mm 0.00 in0.0 mm 0.00 in0.0 mm
04:47 PM 54.0°F12.2°C 28.2°F-2.1°C 38% 9.0 mph WSW14.5 kmh WSW 23.0 mph37.0 kmh 29.92 in1013.2 mb 0.00 in0.0 mm 0.00 in0.0 mm 0.00 in0.0 mm
04:52 PM 53.7°F12.1°C 27.9°F-2.3°C 38% 9.0 mph WSW14.5 kmh WSW 23.0 mph37.0 kmh 29.92 in1013.2 mb 0.00 in0.0 mm 0.00 in0.0 mm 0.00 in0.0 mm
04:57 PM 53.6°F12.0°C 28.5°F-1.9°C 39% 10.0 mph WSW16.1 kmh WSW 23.0 mph37.0 kmh 29.91 in1012.9 mb 0.00 in0.0 mm 0.00 in0.0 mm 0.00 in0.0 mm
05:02 PM 53.7°F12.1°C 28.6°F-1.9°C 39% 9.0 mph W14.5 kmh W 24.0 mph38.6 kmh 29.92 in1013.2 mb 0.00 in0.0 mm 0.00 in0.0 mm 0.00 in0.0 mm
05:07 PM 53.7°F12.1°C 27.9°F-2.3°C 38% 13.0 mph WSW20.9 kmh WSW 24.0 mph38.6 kmh 29.92 in1013.2 mb 0.00 in0.0 mm 0.00 in0.0 mm 0.00 in0.0 mm
05:12 PM 53.7°F12.1°C 27.9°F-2.3°C 38% 6.0 mph W9.7 kmh W 24.0 mph38.6 kmh 29.92 in1013.2 mb 0.00 in0.0 mm 0.00 in0.0 mm 0.00 in0.0 mm
05:17 PM 53.7°F12.1°C 28.6°F-1.9°C 39% 9.0 mph WNW14.5 kmh WNW 24.0 mph38.6 kmh 29.91 in1012.9 mb 0.00 in0.0 mm 0.00 in0.0 mm 0.00 in0.0 mm
05:22 PM 53.7°F12.1°C 27.9°F-2.3°C 38% 9.0 mph W14.5 kmh W 17.0 mph27.4 kmh 29.92 in1013.2 mb 0.00 in0.0 mm 0.00 in0.0 mm 0.00 in0.0 mm
05:27 PM 53.6°F12.0°C 27.8°F-2.3°C 38% 8.0 mph WNW12.9 kmh WNW 21.0 mph33.8 kmh 29.91 in1012.9 mb 0.00 in0.0 mm 0.00 in0.0 mm 0.00 in0.0 mm
05:32 PM 53.6°F12.0°C 28.5°F-1.9°C 39% 10.0 mph WSW16.1 kmh WSW 21.0 mph33.8 kmh 29.91 in1012.9 mb 0.00 in0.0 mm 0.00 in0.0 mm 0.00 in0.0 mm
05:37 PM 53.6°F12.0°C 28.5°F-1.9°C 39% 5.0 mph WNW8.0 kmh WNW 21.0 mph33.8 kmh 29.91 in1012.9 mb 0.00 in0.0 mm 0.00 in0.0 mm 0.00 in0.0 mm
05:42 PM 53.7°F12.1°C 27.9°F-2.3°C 38% 5.0 mph W8.0 kmh W 21.0 mph33.8 kmh 29.91 in1012.9 mb 0.00 in0.0 mm 0.00 in0.0 mm 0.00 in0.0 mm
05:47 PM 53.7°F12.1°C 27.9°F-2.3°C 38% 5.0 mph W8.0 kmh W 19.0 mph30.6 kmh 29.91 in1012.9 mb 0.00 in0.0 mm 0.00 in0.0 mm 0.00 in0.0 mm
05:52 PM 53.7°F12.1°C 28.6°F-1.9°C 39% 7.0 mph WNW11.3 kmh WNW 19.0 mph30.6 kmh 29.91 in1012.9 mb 0.00 in0.0 mm 0.00 in0.0 mm 0.00 in0.0 mm
05:57 PM 53.8°F12.1°C 28.7°F-1.8°C 39% 12.0 mph WNW19.3 kmh WNW 15.0 mph24.1 kmh 29.91 in1012.9 mb 0.00 in0.0 mm 0.00 in0.0 mm 0.00 in0.0 mm
06:02 PM 53.8°F12.1°C 28.0°F-2.2°C 38% 3.0 mph WSW4.8 kmh WSW 17.0 mph27.4 kmh 29.91 in1012.9 mb 0.00 in0.0 mm 0.00 in0.0 mm 0.00 in0.0 mm
06:07 PM 53.8°F12.1°C 27.3°F-2.6°C 37% 14.0 mph W22.5 kmh W 17.0 mph27.4 kmh 29.91 in1012.9 mb 0.00 in0.0 mm 0.00 in0.0 mm 0.00 in0.0 mm
06:12 PM 53.6°F12.0°C 27.8°F-2.3°C 38% 8.0 mph W12.9 kmh W 17.0 mph27.4 kmh 29.91 in1012.9 mb 0.00 in0.0 mm 0.00 in0.0 mm 0.00 in0.0 mm
06:17 PM 53.4°F11.9°C 27.7°F-2.4°C 38% 9.0 mph W14.5 kmh W 20.0 mph32.2 kmh 29.91 in1012.9 mb 0.00 in0.0 mm 0.00 in0.0 mm 0.00 in0.0 mm
06:22 PM 53.2°F11.8°C 27.5°F-2.5°C 38% 4.0 mph W6.4 kmh W 20.0 mph32.2 kmh 29.91 in1012.9 mb 0.00 in0.0 mm 0.00 in0.0 mm 0.00 in0.0 mm
06:27 PM 53.0°F11.7°C 27.3°F-2.6°C 38% 6.0 mph W9.7 kmh W 20.0 mph32.2 kmh 29.91 in1012.9 mb 0.00 in0.0 mm 0.00 in0.0 mm 0.00 in0.0 mm
06:32 PM 52.9°F11.6°C 27.2°F-2.7°C 38% 8.0 mph WSW12.9 kmh WSW 20.0 mph32.2 kmh 29.92 in1013.2 mb 0.00 in0.0 mm 0.00 in0.0 mm 0.00 in0.0 mm
06:37 PM 52.8°F11.6°C 27.8°F-2.3°C 39% 6.0 mph W9.7 kmh W 16.0 mph25.7 kmh 29.92 in1013.2 mb 0.00 in0.0 mm 0.00 in0.0 mm 0.00 in0.0 mm
06:42 PM 52.6°F11.4°C 26.9°F-2.8°C 38% 12.0 mph WSW19.3 kmh WSW 16.0 mph25.7 kmh 29.91 in1012.9 mb 0.00 in0.0 mm 0.00 in0.0 mm 0.00 in0.0 mm
06:47 PM 52.4°F11.3°C 26.8°F-2.9°C 38% 6.0 mph WNW9.7 kmh WNW 14.0 mph22.5 kmh 29.91 in1012.9 mb 0.00 in0.0 mm 0.00 in0.0 mm 0.00 in0.0 mm
06:52 PM 52.2°F11.2°C 27.9°F-2.3°C 40% 4.0 mph W6.4 kmh W 14.0 mph22.5 kmh 29.91 in1012.9 mb 0.00 in0.0 mm 0.00 in0.0 mm 0.00 in0.0 mm
06:57 PM 51.9°F11.1°C 27.6°F-2.4°C 40% 5.0 mph W8.0 kmh W 14.0 mph22.5 kmh 29.92 in1013.2 mb 0.00 in0.0 mm 0.00 in0.0 mm 0.00 in0.0 mm
07:02 PM 51.7°F10.9°C 26.8°F-2.9°C 39% 4.0 mph W6.4 kmh W 14.0 mph22.5 kmh 29.92 in1013.2 mb 0.00 in0.0 mm 0.00 in0.0 mm 0.00 in0.0 mm
07:07 PM 51.4°F10.8°C 27.2°F-2.7°C 40% 2.0 mph WSW3.2 kmh WSW 13.0 mph20.9 kmh 29.92 in1013.2 mb 0.00 in0.0 mm 0.00 in0.0 mm 0.00 in0.0 mm
07:12 PM 51.2°F10.7°C 26.4°F-3.1°C 39% 6.0 mph WNW9.7 kmh WNW 13.0 mph20.9 kmh 29.92 in1013.2 mb 0.00 in0.0 mm 0.00 in0.0 mm 0.00 in0.0 mm
07:17 PM 51.0°F10.6°C 25.5°F-3.6°C 38% 5.0 mph W8.0 kmh W 14.0 mph22.5 kmh 29.92 in1013.2 mb 0.00 in0.0 mm 0.00 in0.0 mm 0.00 in0.0 mm
07:22 PM 50.9°F10.5°C 25.4°F-3.7°C 38% 12.0 mph W19.3 kmh W 15.0 mph24.1 kmh 29.92 in1013.2 mb 0.00 in0.0 mm 0.00 in0.0 mm 0.00 in0.0 mm
07:27 PM 50.7°F10.4°C 25.3°F-3.7°C 38% 7.0 mph W11.3 kmh W 15.0 mph24.1 kmh 29.92 in1013.2 mb 0.00 in0.0 mm 0.00 in0.0 mm 0.00 in0.0 mm
07:32 PM 50.4°F10.2°C 25.0°F-3.9°C 38% 4.0 mph WNW6.4 kmh WNW 15.0 mph24.1 kmh 29.92 in1013.2 mb 0.00 in0.0 mm 0.00 in0.0 mm 0.00 in0.0 mm
07:37 PM 50.2°F10.1°C 24.8°F-4.0°C 38% 4.0 mph W6.4 kmh W 15.0 mph24.1 kmh 29.92 in1013.2 mb 0.00 in0.0 mm 0.00 in0.0 mm 0.00 in0.0 mm
07:42 PM 49.9°F9.9°C 24.6°F-4.1°C 38% 3.0 mph W4.8 kmh W 17.0 mph27.4 kmh 29.92 in1013.2 mb 0.00 in0.0 mm 0.00 in0.0 mm 0.00 in0.0 mm
07:47 PM 49.6°F9.8°C 24.9°F-3.9°C 39% 3.0 mph W4.8 kmh W 17.0 mph27.4 kmh 29.92 in1013.2 mb 0.00 in0.0 mm 0.00 in0.0 mm 0.00 in0.0 mm
07:52 PM 49.2°F9.6°C 24.6°F-4.1°C 39% 9.0 mph W14.5 kmh W 18.0 mph29.0 kmh 29.92 in1013.2 mb 0.00 in0.0 mm 0.00 in0.0 mm 0.00 in0.0 mm
07:57 PM 48.9°F9.4°C 25.0°F-3.9°C 40% 8.0 mph WNW12.9 kmh WNW 18.0 mph29.0 kmh 29.92 in1013.2 mb 0.00 in0.0 mm 0.00 in0.0 mm 0.00 in0.0 mm
08:02 PM 48.6°F9.2°C 24.7°F-4.1°C 40% 7.0 mph W11.3 kmh W 18.0 mph29.0 kmh 29.92 in1013.2 mb 0.00 in0.0 mm 0.00 in0.0 mm 0.00 in0.0 mm
08:07 PM 48.5°F9.2°C 24.6°F-4.1°C 40% 9.0 mph W14.5 kmh W 18.0 mph29.0 kmh 29.92 in1013.2 mb 0.00 in0.0 mm 0.00 in0.0 mm 0.00 in0.0 mm
08:12 PM 48.3°F9.1°C 24.4°F-4.2°C 40% 5.0 mph W8.0 kmh W 14.0 mph22.5 kmh 29.92 in1013.2 mb 0.00 in0.0 mm 0.00 in0.0 mm 0.00 in0.0 mm
08:17 PM 48.1°F8.9°C 24.9°F-3.9°C 41% 6.0 mph NW9.7 kmh NW 18.0 mph29.0 kmh 29.92 in1013.2 mb 0.00 in0.0 mm 0.00 in0.0 mm 0.00 in0.0 mm
08:22 PM 48.0°F8.9°C 25.4°F-3.7°C 42% 5.0 mph W8.0 kmh W 18.0 mph29.0 kmh 29.92 in1013.2 mb 0.00 in0.0 mm 0.00 in0.0 mm 0.00 in0.0 mm
08:27 PM 47.9°F8.8°C 25.3°F-3.7°C 42% 7.0 mph NW11.3 kmh NW 18.0 mph29.0 kmh 29.92 in1013.2 mb 0.00 in0.0 mm 0.00 in0.0 mm 0.00 in0.0 mm
08:32 PM 47.7°F8.7°C 25.1°F-3.8°C 42% 4.0 mph W6.4 kmh W 18.0 mph29.0 kmh 29.93 in1013.5 mb 0.00 in0.0 mm 0.00 in0.0 mm 0.00 in0.0 mm
08:37 PM 47.6°F8.7°C 25.6°F-3.6°C 43% 5.0 mph NW8.0 kmh NW 17.0 mph27.4 kmh 29.93 in1013.5 mb 0.00 in0.0 mm 0.00 in0.0 mm 0.00 in0.0 mm
08:42 PM 47.6°F8.7°C 25.6°F-3.6°C 43% 6.0 mph WNW9.7 kmh WNW 17.0 mph27.4 kmh 29.93 in1013.5 mb 0.00 in0.0 mm 0.00 in0.0 mm 0.00 in0.0 mm
08:47 PM 47.7°F8.7°C 25.1°F-3.8°C 42% 7.0 mph WNW11.3 kmh WNW 14.0 mph22.5 kmh 29.93 in1013.5 mb 0.00 in0.0 mm 0.00 in0.0 mm 0.00 in0.0 mm
08:52 PM 47.8°F8.8°C 25.2°F-3.8°C 42% 10.0 mph NW16.1 kmh NW 14.0 mph22.5 kmh 29.93 in1013.5 mb 0.00 in0.0 mm 0.00 in0.0 mm 0.00 in0.0 mm
08:57 PM 47.8°F8.8°C 25.2°F-3.8°C 42% 9.0 mph W14.5 kmh W 17.0 mph27.4 kmh 29.93 in1013.5 mb 0.00 in0.0 mm 0.00 in0.0 mm 0.00 in0.0 mm
09:02 PM 47.9°F8.8°C 25.3°F-3.7°C 42% 9.0 mph W14.5 kmh W 17.0 mph27.4 kmh 29.94 in1013.9 mb 0.00 in0.0 mm 0.00 in0.0 mm 0.00 in0.0 mm
09:07 PM 47.9°F8.8°C 24.7°F-4.1°C 41% 11.0 mph W17.7 kmh W 17.0 mph27.4 kmh 29.94 in1013.9 mb 0.00 in0.0 mm 0.00 in0.0 mm 0.00 in0.0 mm
09:12 PM 47.9°F8.8°C 24.7°F-4.1°C 41% 15.0 mph W24.1 kmh W 17.0 mph27.4 kmh 29.94 in1013.9 mb 0.00 in0.0 mm 0.00 in0.0 mm 0.00 in0.0 mm
09:17 PM 47.9°F8.8°C 24.7°F-4.1°C 41% 10.0 mph W16.1 kmh W 17.0 mph27.4 kmh 29.94 in1013.9 mb 0.00 in0.0 mm 0.00 in0.0 mm 0.00 in0.0 mm
09:22 PM 47.9°F8.8°C 25.3°F-3.7°C 42% 12.0 mph WNW19.3 kmh WNW 19.0 mph30.6 kmh 29.95 in1014.2 mb 0.00 in0.0 mm 0.00 in0.0 mm 0.00 in0.0 mm
09:27 PM 47.8°F8.8°C 25.2°F-3.8°C 42% 7.0 mph WNW11.3 kmh WNW 19.0 mph30.6 kmh 29.95 in1014.2 mb 0.00 in0.0 mm 0.00 in0.0 mm 0.00 in0.0 mm
09:32 PM 47.8°F8.8°C 25.2°F-3.8°C 42% 7.0 mph WNW11.3 kmh WNW 19.0 mph30.6 kmh 29.95 in1014.2 mb 0.00 in0.0 mm 0.00 in0.0 mm 0.00 in0.0 mm
09:37 PM 47.7°F8.7°C 25.1°F-3.8°C 42% 5.0 mph NW8.0 kmh NW 20.0 mph32.2 kmh 29.95 in1014.2 mb 0.00 in0.0 mm 0.00 in0.0 mm 0.00 in0.0 mm
09:42 PM 47.6°F8.7°C 25.6°F-3.6°C 43% 4.0 mph NW6.4 kmh NW 20.0 mph32.2 kmh 29.96 in1014.6 mb 0.00 in0.0 mm 0.00 in0.0 mm 0.00 in0.0 mm
09:47 PM 47.0°F8.3°C 26.8°F-2.9°C 46% 7.0 mph NNW11.3 kmh NNW 20.0 mph32.2 kmh 29.96 in1014.6 mb 0.00 in0.0 mm 0.00 in0.0 mm 0.00 in0.0 mm
09:52 PM 46.0°F7.8°C 27.5°F-2.5°C 49% 7.0 mph WNW11.3 kmh WNW 20.0 mph32.2 kmh 29.96 in1014.6 mb 0.00 in0.0 mm 0.00 in0.0 mm 0.00 in0.0 mm
09:57 PM 44.8°F7.1°C 27.4°F-2.6°C 51% 4.0 mph WNW6.4 kmh WNW 9.0 mph14.5 kmh 29.97 in1014.9 mb 0.00 in0.0 mm 0.00 in0.0 mm 0.00 in0.0 mm
10:02 PM 43.7°F6.5°C 27.3°F-2.6°C 53% 1.0 mph NW1.6 kmh NW 9.0 mph14.5 kmh 29.97 in1014.9 mb 0.00 in0.0 mm 0.00 in0.0 mm 0.00 in0.0 mm
10:07 PM 43.0°F6.1°C 27.1°F-2.7°C 54% Calm Calm 8.0 mph12.9 kmh 29.97 in1014.9 mb 0.00 in0.0 mm 0.00 in0.0 mm 0.00 in0.0 mm
10:12 PM 42.2°F5.7°C 26.9°F-2.8°C 55% Calm Calm 1.0 mph1.6 kmh 29.98 in1015.2 mb 0.00 in0.0 mm 0.00 in0.0 mm 0.00 in0.0 mm
10:17 PM 41.7°F5.4°C 27.7°F-2.4°C 58% Calm Calm 1.0 mph1.6 kmh 29.98 in1015.2 mb 0.00 in0.0 mm 0.00 in0.0 mm 0.00 in0.0 mm
10:22 PM 41.2°F5.1°C 27.7°F-2.4°C 59% Calm Calm 1.0 mph1.6 kmh 29.98 in1015.2 mb 0.00 in0.0 mm 0.00 in0.0 mm 0.00 in0.0 mm
10:27 PM 40.8°F4.9°C 27.7°F-2.4°C 60% Calm Calm -- 29.98 in1015.2 mb 0.00 in0.0 mm 0.00 in0.0 mm 0.00 in0.0 mm
10:32 PM 40.3°F4.6°C 27.7°F-2.4°C 61% Calm Calm 1.0 mph1.6 kmh 29.98 in1015.2 mb 0.00 in0.0 mm 0.00 in0.0 mm 0.00 in0.0 mm
10:37 PM 40.0°F4.4°C 27.8°F-2.3°C 62% Calm Calm 1.0 mph1.6 kmh 29.98 in1015.2 mb 0.00 in0.0 mm 0.00 in0.0 mm 0.00 in0.0 mm
10:42 PM 40.0°F4.4°C 28.2°F-2.1°C 63% 5.0 mph NE8.0 kmh NE 8.0 mph12.9 kmh 29.98 in1015.2 mb 0.00 in0.0 mm 0.00 in0.0 mm 0.00 in0.0 mm
10:47 PM 39.9°F4.4°C 28.5°F-1.9°C 64% 2.0 mph ENE3.2 kmh ENE 8.0 mph12.9 kmh 29.98 in1015.2 mb 0.00 in0.0 mm 0.00 in0.0 mm 0.00 in0.0 mm
10:52 PM 39.8°F4.3°C 28.4°F-2.0°C 64% 6.0 mph NE9.7 kmh NE 8.0 mph12.9 kmh 29.98 in1015.2 mb 0.00 in0.0 mm 0.00 in0.0 mm 0.00 in0.0 mm
10:57 PM 39.8°F4.3°C 28.8°F-1.8°C 65% 4.0 mph NE6.4 kmh NE 9.0 mph14.5 kmh 29.98 in1015.2 mb 0.00 in0.0 mm 0.00 in0.0 mm 0.00 in0.0 mm
11:02 PM 39.8°F4.3°C 28.8°F-1.8°C 65% 5.0 mph ENE8.0 kmh ENE 9.0 mph14.5 kmh 29.98 in1015.2 mb 0.00 in0.0 mm 0.00 in0.0 mm 0.00 in0.0 mm
11:07 PM 39.8°F4.3°C 28.8°F-1.8°C 65% 4.0 mph ENE6.4 kmh ENE 9.0 mph14.5 kmh 29.98 in1015.2 mb 0.00 in0.0 mm 0.00 in0.0 mm 0.00 in0.0 mm
11:12 PM 39.6°F4.2°C 29.0°F-1.7°C 66% 7.0 mph E11.3 kmh E 9.0 mph14.5 kmh 29.98 in1015.2 mb 0.00 in0.0 mm 0.00 in0.0 mm 0.00 in0.0 mm
11:17 PM 39.6°F4.2°C 29.0°F-1.7°C 66% 4.0 mph E6.4 kmh E 8.0 mph12.9 kmh 29.98 in1015.2 mb 0.00 in0.0 mm 0.00 in0.0 mm 0.00 in0.0 mm
11:22 PM 39.5°F4.2°C 28.9°F-1.7°C 66% 6.0 mph NE9.7 kmh NE 8.0 mph12.9 kmh 29.98 in1015.2 mb 0.00 in0.0 mm 0.00 in0.0 mm 0.00 in0.0 mm
11:27 PM 39.4°F4.1°C 28.8°F-1.8°C 66% 5.0 mph ENE8.0 kmh ENE 8.0 mph12.9 kmh 29.98 in1015.2 mb 0.00 in0.0 mm 0.00 in0.0 mm 0.00 in0.0 mm
11:32 PM 39.4°F4.1°C 28.8°F-1.8°C 66% 8.0 mph ENE12.9 kmh ENE 9.0 mph14.5 kmh 29.98 in1015.2 mb 0.00 in0.0 mm 0.00 in0.0 mm 0.00 in0.0 mm
11:37 PM 39.4°F4.1°C 28.8°F-1.8°C 66% 4.0 mph ENE6.4 kmh ENE 10.0 mph16.1 kmh 29.98 in1015.2 mb 0.00 in0.0 mm 0.00 in0.0 mm 0.00 in0.0 mm
11:42 PM 39.2°F4.0°C 28.6°F-1.9°C 66% 2.0 mph E3.2 kmh E 10.0 mph16.1 kmh 29.98 in1015.2 mb 0.00 in0.0 mm 0.00 in0.0 mm 0.00 in0.0 mm
11:47 PM 39.0°F3.9°C 28.4°F-2.0°C 66% 5.0 mph E8.0 kmh E 10.0 mph16.1 kmh 29.98 in1015.2 mb 0.00 in0.0 mm 0.00 in0.0 mm 0.00 in0.0 mm
11:52 PM 38.7°F3.7°C 28.2°F-2.1°C 66% 4.0 mph ENE6.4 kmh ENE 10.0 mph16.1 kmh 29.98 in1015.2 mb 0.00 in0.0 mm 0.00 in0.0 mm 0.00 in0.0 mm
11:57 PM 38.5°F3.6°C 28.0°F-2.2°C 66% 3.0 mph ENE4.8 kmh ENE 7.0 mph11.3 kmh 29.98 in1015.2 mb 0.00 in0.0 mm 0.00 in0.0 mm 0.00 in0.0 mm